Terminal Aerodrome Forecast
Issued by NWS Chicago, IL

Home | Current Version | Previous Version | Text Only | Print | Product List | Glossary On
Versions: 1 2 3 4 5 6 7 8 9 10 11 12 13 14 15 16 17 18 19 20 21 22 23 24 25 26 27 28 29 30 31 32 33 34 35
000
FTUS43 KLOT 300800 AAB
TAFRFD
TAF AMD
KRFD 300844Z 3009/3106 36011KT P6SM BKN045
     FM301400 34007KT P6SM SCT025 BKN150
     FM302000 24006KT P6SM BKN120
     FM310000 VRB03KT P6SM SCT120=

USA.gov is the U.S. government's official web portal to all federal, state and local government web resources and services.